createdAt,value
2019-06-10T00:01:06.991Z,57.23
2019-06-10T00:03:36.515Z,57.22
2019-06-10T00:06:07.038Z,57.08
2019-06-10T00:08:37.511Z,57.28
2019-06-10T00:11:07.977Z,57.10
2019-06-10T00:13:38.344Z,57.17
2019-06-10T00:16:11.305Z,56.96
2019-06-10T00:18:45.138Z,57.14
2019-06-10T00:21:13.190Z,57.42
2019-06-10T00:23:43.664Z,57.35
2019-06-10T00:26:14.194Z,57.78
2019-06-10T00:28:44.618Z,57.84
2019-06-10T00:31:15.066Z,58.37
2019-06-10T00:33:45.468Z,58.64
2019-06-10T00:36:15.895Z,58.30
2019-06-10T00:38:46.292Z,58.04
2019-06-10T00:41:16.755Z,58.00
2019-06-10T00:43:47.179Z,57.88
2019-06-10T00:46:17.569Z,57.95
2019-06-10T00:48:48.054Z,57.85
2019-06-10T00:51:20.780Z,58.11
2019-06-10T00:53:51.362Z,58.07
2019-06-10T00:56:21.982Z,58.21
2019-06-10T00:58:52.369Z,58.16
2019-06-10T01:01:22.756Z,58.44
2019-06-10T01:03:53.341Z,58.66
2019-06-10T01:06:23.848Z,59.31
2019-06-10T01:08:54.260Z,59.40
2019-06-10T01:11:27.125Z,59.44
2019-06-10T01:13:56.707Z,59.91
2019-06-10T01:16:27.052Z,59.57
2019-06-10T01:18:57.443Z,59.38
2019-06-10T01:21:27.803Z,59.22
2019-06-10T01:23:58.231Z,59.00
2019-06-10T01:26:30.841Z,58.80
2019-06-10T01:29:01.067Z,58.88
2019-06-10T01:31:31.905Z,58.79
2019-06-10T01:34:02.345Z,59.06
2019-06-10T01:36:32.770Z,59.15
2019-06-10T01:39:03.550Z,59.12
2019-06-10T01:41:33.921Z,59.20
2019-06-10T01:44:04.400Z,59.36
2019-06-10T01:46:34.855Z,59.94
2019-06-10T01:49:05.336Z,60.15
2019-06-10T01:51:35.818Z,60.50
2019-06-10T01:54:07.362Z,60.67
2019-06-10T01:56:37.954Z,60.69
2019-06-10T01:59:10.968Z,60.64
2019-06-10T02:01:44.592Z,60.61
2019-06-10T02:04:16.570Z,60.28
2019-06-10T02:06:47.689Z,60.12
2019-06-10T02:09:18.817Z,60.03
2019-06-10T02:11:51.394Z,59.90
2019-06-10T02:14:24.241Z,60.03
2019-06-10T02:16:54.567Z,60.09
2019-06-10T02:19:25.033Z,59.66
2019-06-10T02:21:55.451Z,59.55
2019-06-10T02:24:25.999Z,59.77
2019-06-10T02:26:56.459Z,60.04
2019-06-10T02:29:26.868Z,60.10
2019-06-10T02:31:57.236Z,60.25
2019-06-10T02:34:28.622Z,60.41
2019-06-10T02:36:59.222Z,59.90
2019-06-10T02:39:35.048Z,59.05
2019-06-10T02:42:05.828Z,57.59
2019-06-10T02:44:37.675Z,56.94
2019-06-10T02:47:08.272Z,56.57
2019-06-10T02:49:55.720Z,56.58
2019-06-10T02:52:23.276Z,56.85
2019-06-10T02:54:53.585Z,56.57
2019-06-10T02:57:30.440Z,56.34
2019-06-10T02:59:56.404Z,56.80
2019-06-10T03:02:31.819Z,56.68
2019-06-10T03:04:58.877Z,57.03
2019-06-10T03:07:32.619Z,56.92
2019-06-10T03:10:04.517Z,56.67
2019-06-10T03:12:33.478Z,56.91
2019-06-10T03:15:05.187Z,56.63
2019-06-10T03:17:35.675Z,56.61
2019-06-10T03:20:07.605Z,56.31
2019-06-10T03:22:38.140Z,56.14
2019-06-10T03:25:10.187Z,56.33
2019-06-10T03:27:42.448Z,56.31
2019-06-10T03:30:17.198Z,56.38
2019-06-10T03:32:46.628Z,55.88
2019-06-10T03:35:17.363Z,55.89
2019-06-10T03:37:47.845Z,55.50
2019-06-10T03:40:18.545Z,55.07
2019-06-10T03:42:48.957Z,54.73
2019-06-10T03:45:19.339Z,55.24
2019-06-10T03:47:49.705Z,54.94
2019-06-10T03:50:21.897Z,54.50
2019-06-10T03:52:52.514Z,54.59
2019-06-10T03:55:25.011Z,54.51
2019-06-10T03:57:54.991Z,53.97
2019-06-10T04:00:27.192Z,53.95
2019-06-10T04:02:57.460Z,54.31
2019-06-10T04:05:28.863Z,54.05
2019-06-10T04:08:02.003Z,54.13
2019-06-10T04:10:32.456Z,54.50
2019-06-10T04:13:02.989Z,54.38
2019-06-10T04:15:33.641Z,54.28
2019-06-10T04:18:04.152Z,54.65
2019-06-10T04:20:34.610Z,54.92
2019-06-10T04:23:05.008Z,54.87
2019-06-10T04:25:36.442Z,54.58
2019-06-10T04:28:06.803Z,54.02
2019-06-10T04:30:37.275Z,54.43
2019-06-10T04:33:07.695Z,54.43
2019-06-10T04:35:38.098Z,53.82
2019-06-10T04:38:08.472Z,53.91
2019-06-10T04:40:38.888Z,52.45
2019-06-10T04:43:09.281Z,52.45
2019-06-10T04:45:39.666Z,53.66
2019-06-10T04:48:12.300Z,53.27
2019-06-10T04:50:46.208Z,53.00
2019-06-10T04:53:14.275Z,53.24
2019-06-10T04:55:44.751Z,52.44
2019-06-10T04:58:15.143Z,51.99
2019-06-10T05:00:45.999Z,51.66
2019-06-10T05:03:16.580Z,51.48
2019-06-10T05:05:47.520Z,51.73
2019-06-10T05:08:18.999Z,51.59
2019-06-10T05:10:49.428Z,51.27
2019-06-10T05:13:19.819Z,51.19
2019-06-10T05:15:52.583Z,51.15
2019-06-10T05:18:24.237Z,51.14
2019-06-10T05:20:58.548Z,50.93
2019-06-10T05:23:27.895Z,50.23
2019-06-10T05:25:58.514Z,50.63
2019-06-10T05:28:30.014Z,50.33
2019-06-10T05:31:02.759Z,50.00
2019-06-10T05:33:33.499Z,49.53
2019-06-10T05:36:04.730Z,49.38
2019-06-10T05:38:35.484Z,48.75
2019-06-10T05:41:07.049Z,48.06
2019-06-10T05:43:37.490Z,47.88
2019-06-10T05:46:08.059Z,47.79
2019-06-10T05:48:38.529Z,48.03
2019-06-10T05:51:08.917Z,48.62
2019-06-10T05:53:39.308Z,48.36
2019-06-10T05:56:09.866Z,48.32
2019-06-10T05:58:40.274Z,49.04
2019-06-10T06:01:12.967Z,48.07
2019-06-10T06:03:43.913Z,47.39
2019-06-10T06:06:14.926Z,46.18
2019-06-10T06:08:45.426Z,45.31
2019-06-10T06:11:15.861Z,45.94
2019-06-10T06:13:46.357Z,45.73
2019-06-10T06:16:16.850Z,44.96
2019-06-10T06:18:47.336Z,45.49
2019-06-10T06:21:25.470Z,45.36
2019-06-10T06:23:52.608Z,43.11
2019-06-10T06:26:23.608Z,41.12
2019-06-10T06:28:54.536Z,40.88
2019-06-10T06:31:26.170Z,39.78
2019-06-10T06:33:57.103Z,40.67
2019-06-10T06:36:28.638Z,40.91
2019-06-10T06:38:59.115Z,39.04
2019-06-10T06:41:29.641Z,39.52
2019-06-10T06:44:02.159Z,39.07
2019-06-10T06:46:35.011Z,39.34
2019-06-10T06:49:04.308Z,39.56
2019-06-10T06:51:47.388Z,39.66
2019-06-10T06:54:06.990Z,39.48
2019-06-10T06:56:38.996Z,39.23
2019-06-10T06:59:09.822Z,38.39
2019-06-10T07:01:44.103Z,38.67
2019-06-10T07:04:13.490Z,38.38
2019-06-10T07:06:44.565Z,38.11
2019-06-10T07:09:14.950Z,37.99
2019-06-10T07:11:45.589Z,37.75
2019-06-10T07:14:16.911Z,37.78
2019-06-10T07:16:47.439Z,37.08
2019-06-10T07:19:17.821Z,37.24
2019-06-10T07:22:07.456Z,36.09
2019-06-10T07:24:20.329Z,34.95
2019-06-10T07:26:54.677Z,34.27
2019-06-10T07:29:23.057Z,35.66
2019-06-10T07:31:53.916Z,34.91
2019-06-10T07:34:24.397Z,34.45
2019-06-10T07:36:54.982Z,34.33
2019-06-10T07:39:25.480Z,34.34
2019-06-10T07:41:56.881Z,34.21
2019-06-10T07:44:27.375Z,34.58
2019-06-10T07:46:58.763Z,34.27
2019-06-10T07:49:29.286Z,34.85
2019-06-10T07:52:14.887Z,33.80
2019-06-10T07:54:33.243Z,34.50
2019-06-10T07:57:04.381Z,33.42
2019-06-10T07:59:35.413Z,33.94
2019-06-10T08:02:05.992Z,34.20
2019-06-10T08:04:38.049Z,33.62
2019-06-10T08:07:08.711Z,33.23
2019-06-10T08:09:39.205Z,33.20
2019-06-10T08:12:09.712Z,33.12
2019-06-10T08:14:42.245Z,32.73
2019-06-10T08:17:12.918Z,32.06
2019-06-10T08:19:48.853Z,31.98
2019-06-10T08:22:29.820Z,32.57
2019-06-10T08:24:48.136Z,31.99
2019-06-10T08:27:19.105Z,31.75
2019-06-10T08:29:58.552Z,31.19
2019-06-10T08:32:24.502Z,31.22
2019-06-10T08:34:54.225Z,30.99
2019-06-10T08:37:24.689Z,30.98
2019-06-10T08:39:55.252Z,31.48
2019-06-10T08:42:25.804Z,31.62
2019-06-10T08:44:59.707Z,32.15
2019-06-10T08:47:28.588Z,32.10
2019-06-10T08:49:59.089Z,32.01
2019-06-10T08:52:29.638Z,32.60
2019-06-10T08:55:03.147Z,33.26
2019-06-10T08:57:33.512Z,32.76
2019-06-10T09:00:12.507Z,33.23
2019-06-10T09:02:41.065Z,33.02
2019-06-10T09:05:17.670Z,33.25
2019-06-10T09:07:51.256Z,33.71
2019-06-10T09:10:22.633Z,33.99
2019-06-10T09:12:54.672Z,35.12
2019-06-10T09:15:25.326Z,35.71
2019-06-10T09:17:56.212Z,35.46
2019-06-10T09:20:27.184Z,35.30
2019-06-10T09:23:16.830Z,36.12
2019-06-10T09:25:33.310Z,35.92
2019-06-10T09:28:03.037Z,35.44
2019-06-10T09:30:33.555Z,36.13
2019-06-10T09:33:04.836Z,35.52
2019-06-10T09:35:35.612Z,35.92
2019-06-10T09:38:06.210Z,35.87
2019-06-10T09:40:59.017Z,36.13
2019-06-10T09:43:23.293Z,36.48
2019-06-10T09:45:56.379Z,36.40
2019-06-10T09:48:26.101Z,36.69
2019-06-10T09:50:58.800Z,36.97
2019-06-10T09:53:34.992Z,36.63
2019-06-10T09:56:04.102Z,37.73
2019-06-10T09:58:33.521Z,38.56
2019-06-10T10:01:04.828Z,38.43
2019-06-10T10:03:35.420Z,39.26
2019-06-10T10:06:13.997Z,39.70
2019-06-10T10:08:38.072Z,40.41
2019-06-10T10:11:08.726Z,41.03
2019-06-10T10:13:39.344Z,40.36
2019-06-10T10:16:09.825Z,40.26
2019-06-10T10:18:42.516Z,40.47
2019-06-10T10:21:13.033Z,40.95
2019-06-10T10:23:53.981Z,40.81
2019-06-10T10:26:16.129Z,41.43
2019-06-10T10:28:49.913Z,41.76
2019-06-10T10:31:18.703Z,41.94
2019-06-10T10:33:50.462Z,41.55
2019-06-10T10:36:22.572Z,41.52
2019-06-10T10:38:53.586Z,41.14
2019-06-10T10:41:24.216Z,41.18
2019-06-10T10:43:57.809Z,40.66
2019-06-10T10:46:27.155Z,41.38
2019-06-10T10:48:57.835Z,41.55
2019-06-10T10:51:28.171Z,41.03
2019-06-10T10:54:28.487Z,41.02
2019-06-10T10:56:33.386Z,40.48
2019-06-10T10:59:03.477Z,41.28
2019-06-10T11:01:35.029Z,40.33
2019-06-10T11:04:05.779Z,40.43
2019-06-10T11:06:37.866Z,41.16
2019-06-10T11:09:09.599Z,41.22
2019-06-10T11:11:43.641Z,39.68
2019-06-10T11:14:15.003Z,39.68
2019-06-10T11:16:45.527Z,39.00
2019-06-10T11:19:16.230Z,38.91
2019-06-10T11:21:47.421Z,39.24
2019-06-10T11:24:32.864Z,39.15
2019-06-10T11:26:53.193Z,39.08
2019-06-10T11:29:23.095Z,38.51
2019-06-10T11:31:55.699Z,38.70
2019-06-10T11:34:26.548Z,39.24
2019-06-10T11:36:58.178Z,38.53
2019-06-10T11:39:28.788Z,38.78
2019-06-10T11:41:59.159Z,39.07
2019-06-10T11:44:30.057Z,38.80
2019-06-10T11:47:07.320Z,38.73
2019-06-10T11:49:37.869Z,39.55
2019-06-10T11:52:12.439Z,38.48
2019-06-10T11:54:55.705Z,39.00
2019-06-10T11:57:14.171Z,38.72
2019-06-10T11:59:44.594Z,38.96
2019-06-10T12:02:15.050Z,38.41
2019-06-10T12:04:45.656Z,37.34
2019-06-10T12:07:16.387Z,37.70
2019-06-10T12:09:46.942Z,38.11
2019-06-10T12:12:17.475Z,38.19
2019-06-10T12:14:49.281Z,37.37
2019-06-10T12:17:35.233Z,37.05
2019-06-10T12:19:55.606Z,37.38
2019-06-10T12:22:24.577Z,37.79
2019-06-10T12:25:21.084Z,37.53
2019-06-10T12:27:27.219Z,37.72
2019-06-10T12:30:00.263Z,37.03
2019-06-10T12:32:33.013Z,36.34
2019-06-10T12:35:05.343Z,36.93
2019-06-10T12:37:36.253Z,36.42
2019-06-10T12:40:12.786Z,35.95
2019-06-10T12:42:43.099Z,35.52
2019-06-10T12:45:13.859Z,35.05
2019-06-10T12:47:44.400Z,35.70
2019-06-10T12:50:14.978Z,35.12
2019-06-10T12:52:45.347Z,34.68
2019-06-10T12:55:15.897Z,34.54
2019-06-10T12:57:46.383Z,34.21
2019-06-10T13:00:23.255Z,34.12
2019-06-10T13:02:53.023Z,34.57
2019-06-10T13:05:23.033Z,33.98
2019-06-10T13:07:53.776Z,34.01
2019-06-10T13:10:42.927Z,34.41
2019-06-10T13:13:13.521Z,34.09
2019-06-10T13:15:43.978Z,33.95
2019-06-10T13:18:19.164Z,33.75
2019-06-10T13:20:46.438Z,33.36
2019-06-10T13:23:23.849Z,33.24
2019-06-10T13:25:55.347Z,33.48
2019-06-10T13:28:22.265Z,33.08
2019-06-10T13:30:54.485Z,32.89
2019-06-10T13:33:25.016Z,32.32
2019-06-10T13:35:56.695Z,32.72
2019-06-10T13:38:27.619Z,32.49
2019-06-10T13:40:59.476Z,32.49
2019-06-10T13:43:33.044Z,32.34
2019-06-10T13:46:03.107Z,32.18
2019-06-10T13:48:34.281Z,32.50
2019-06-10T13:51:09.120Z,31.68
2019-06-10T13:53:36.953Z,32.18
2019-06-10T13:56:34.697Z,31.84
2019-06-10T13:58:45.031Z,31.82
2019-06-10T14:01:20.761Z,31.62
2019-06-10T14:03:44.184Z,31.80
2019-06-10T14:06:32.583Z,30.90
2019-06-10T14:08:47.018Z,30.11
2019-06-10T14:11:18.968Z,29.35
2019-06-10T14:13:52.428Z,30.22
2019-06-10T14:16:23.424Z,30.18
2019-06-10T14:18:54.396Z,30.08
2019-06-10T14:21:24.916Z,29.94
2019-06-10T14:23:55.341Z,29.70
2019-06-10T14:26:39.858Z,29.98
2019-06-10T14:28:58.148Z,29.95
2019-06-10T14:31:42.848Z,28.90
2019-06-10T14:34:00.771Z,28.63
2019-06-10T14:36:32.541Z,29.24
2019-06-10T14:39:06.029Z,28.77
2019-06-10T14:41:36.573Z,28.13
2019-06-10T14:44:08.603Z,27.58
2019-06-10T14:46:39.248Z,27.03
2019-06-10T14:49:10.853Z,28.10
2019-06-10T14:51:43.107Z,26.92
2019-06-10T14:54:18.022Z,27.20
2019-06-10T14:56:53.623Z,27.44
2019-06-10T14:59:22.301Z,27.11
2019-06-10T15:01:52.274Z,26.14
2019-06-10T15:04:23.056Z,25.79
2019-06-10T15:06:53.934Z,25.65
2019-06-10T15:09:24.402Z,25.04
2019-06-10T15:11:54.963Z,25.26
2019-06-10T15:14:25.403Z,25.25
2019-06-10T15:16:55.899Z,25.55
2019-06-10T15:19:29.033Z,25.46
2019-06-10T15:21:58.413Z,25.44
2019-06-10T15:24:28.784Z,25.48
2019-06-10T15:27:11.937Z,25.85
2019-06-10T15:29:32.856Z,26.01
2019-06-10T15:32:14.643Z,25.91
2019-06-10T15:34:36.465Z,25.30
2019-06-10T15:37:06.945Z,25.93
2019-06-10T15:39:37.347Z,26.27
2019-06-10T15:42:07.741Z,26.31
2019-06-10T15:44:48.598Z,26.01
2019-06-10T15:47:13.865Z,25.59
2019-06-10T15:49:42.313Z,25.35
2019-06-10T15:52:13.916Z,25.66
2019-06-10T15:54:44.798Z,25.31
2019-06-10T15:57:31.780Z,25.53
2019-06-10T15:59:47.330Z,25.98
2019-06-10T16:02:19.467Z,25.88
2019-06-10T16:04:52.442Z,26.81
2019-06-10T16:07:25.364Z,28.17
2019-06-10T16:09:54.340Z,28.61
2019-06-10T16:12:26.794Z,29.77
2019-06-10T16:14:56.949Z,29.97
2019-06-10T16:17:30.073Z,31.20
2019-06-10T16:19:59.438Z,31.81
2019-06-10T16:22:29.893Z,32.09
2019-06-10T16:25:00.258Z,32.56
2019-06-10T16:27:46.294Z,32.92
2019-06-10T16:30:02.938Z,33.22
2019-06-10T16:32:33.329Z,33.86
2019-06-10T16:35:05.741Z,33.81
2019-06-10T16:37:36.198Z,34.35
2019-06-10T16:40:07.001Z,34.83
2019-06-10T16:42:37.424Z,35.10
2019-06-10T16:45:07.779Z,35.48
2019-06-10T16:47:38.317Z,35.64
2019-06-10T16:50:09.310Z,35.97
2019-06-10T16:52:42.946Z,36.41
2019-06-10T16:55:12.745Z,36.50
2019-06-10T16:57:58.396Z,36.79
2019-06-10T17:00:15.505Z,36.70
2019-06-10T17:02:46.169Z,37.11
2019-06-10T17:05:16.648Z,37.44
2019-06-10T17:07:47.522Z,37.38
2019-06-10T17:10:17.900Z,37.62
2019-06-10T17:12:49.954Z,37.70
2019-06-10T17:15:21.088Z,37.89
2019-06-10T17:17:52.200Z,38.29
2019-06-10T17:20:23.614Z,38.87
2019-06-10T17:22:54.778Z,38.91
2019-06-10T17:25:26.557Z,38.95
2019-06-10T17:27:57.361Z,39.21
2019-06-10T17:30:28.502Z,39.33
2019-06-10T17:32:59.562Z,39.92
2019-06-10T17:35:32.959Z,40.05
2019-06-10T17:38:02.821Z,40.38
2019-06-10T17:40:33.725Z,40.29
2019-06-10T17:43:04.349Z,40.51
2019-06-10T17:45:34.896Z,40.68
2019-06-10T17:48:05.306Z,41.01
2019-06-10T17:50:35.695Z,41.25
2019-06-10T17:53:06.140Z,41.49
2019-06-10T17:55:36.524Z,41.57
2019-06-10T17:58:06.961Z,41.67
2019-06-10T18:00:37.357Z,41.95
2019-06-10T18:03:08.033Z,42.03
2019-06-10T18:05:38.566Z,42.12
2019-06-10T18:08:09.039Z,42.14
2019-06-10T18:10:39.577Z,42.30
2019-06-10T18:13:16.414Z,42.38
2019-06-10T18:15:42.350Z,42.55
2019-06-10T18:18:13.032Z,42.75
2019-06-10T18:20:44.355Z,42.98
2019-06-10T18:23:14.863Z,43.08
2019-06-10T18:25:45.263Z,43.14
2019-06-10T18:28:15.708Z,43.37
2019-06-10T18:30:46.545Z,43.24
2019-06-10T18:33:16.937Z,43.43
2019-06-10T18:35:47.373Z,43.68
2019-06-10T18:38:17.925Z,44.06
2019-06-10T18:40:48.331Z,44.25
2019-06-10T18:43:18.724Z,44.46
2019-06-10T18:45:49.148Z,44.60
2019-06-10T18:48:19.572Z,44.89
2019-06-10T18:50:52.555Z,44.99
2019-06-10T18:53:23.428Z,45.44
2019-06-10T18:55:54.975Z,45.49
2019-06-10T18:58:25.528Z,45.78
2019-06-10T19:01:03.921Z,46.01
2019-06-10T19:03:28.698Z,46.35
2019-06-10T19:05:59.166Z,46.64
2019-06-10T19:08:29.555Z,46.85
2019-06-10T19:11:02.358Z,47.03
2019-06-10T19:13:35.266Z,47.39
2019-06-10T19:16:04.313Z,47.64
2019-06-10T19:18:36.036Z,47.91
2019-06-10T19:21:08.843Z,48.01
2019-06-10T19:23:39.756Z,48.57
2019-06-10T19:26:13.852Z,48.73
2019-06-10T19:29:03.731Z,48.76
2019-06-10T19:31:36.239Z,49.26
2019-06-10T19:34:06.086Z,49.13
2019-06-10T19:36:37.669Z,49.32
2019-06-10T19:39:08.300Z,49.41
2019-06-10T19:41:40.657Z,49.50
2019-06-10T19:44:12.967Z,49.68
2019-06-10T19:46:43.159Z,49.95
2019-06-10T19:49:13.750Z,50.18
2019-06-10T19:51:46.591Z,50.10
2019-06-10T19:54:16.337Z,50.53
2019-06-10T19:56:46.916Z,50.80
2019-06-10T19:59:17.291Z,50.87
2019-06-10T20:01:48.841Z,51.14
2019-06-10T20:04:19.350Z,51.29
2019-06-10T20:06:50.819Z,51.44
2019-06-10T20:09:22.658Z,51.62
2019-06-10T20:11:53.242Z,51.69
2019-06-10T20:14:23.770Z,51.91
2019-06-10T20:16:54.175Z,52.01
2019-06-10T20:19:24.622Z,52.37
2019-06-10T20:21:55.190Z,52.46
2019-06-10T20:24:25.689Z,52.59
2019-06-10T20:26:56.078Z,52.95
2019-06-10T20:29:26.465Z,52.89
2019-06-10T20:31:56.886Z,53.19
2019-06-10T20:34:28.139Z,53.17
2019-06-10T20:36:58.723Z,53.23
2019-06-10T20:39:29.682Z,53.58
2019-06-10T20:42:02.716Z,53.75
2019-06-10T20:44:32.692Z,53.83
2019-06-10T20:47:03.296Z,53.98
2019-06-10T20:49:33.761Z,54.08
2019-06-10T20:52:11.151Z,54.38
2019-06-10T20:54:36.530Z,54.28
2019-06-10T20:57:07.029Z,54.47
2019-06-10T20:59:39.067Z,54.68
2019-06-10T21:02:09.636Z,54.93
2019-06-10T21:04:41.697Z,54.93
2019-06-10T21:07:13.232Z,55.06
2019-06-10T21:09:44.434Z,55.04
2019-06-10T21:12:16.021Z,55.30
2019-06-10T21:14:47.221Z,55.44
2019-06-10T21:17:18.569Z,55.95
2019-06-10T21:19:49.213Z,56.26
2019-06-10T21:22:19.579Z,56.43
2019-06-10T21:24:51.350Z,56.65
2019-06-10T21:27:23.868Z,56.61
2019-06-10T21:29:54.908Z,56.45
2019-06-10T21:32:25.329Z,56.33
2019-06-10T21:34:55.791Z,56.48
2019-06-10T21:37:26.283Z,56.51
2019-06-10T21:39:56.695Z,56.71
2019-06-10T21:42:27.275Z,56.89
2019-06-10T21:44:57.645Z,57.34
2019-06-10T21:47:28.045Z,57.46
2019-06-10T21:49:58.432Z,57.54
2019-06-10T21:52:28.978Z,57.71
2019-06-10T21:54:59.361Z,58.07
2019-06-10T21:57:29.836Z,58.36
2019-06-10T22:00:02.388Z,58.57
2019-06-10T22:02:32.464Z,58.89
2019-06-10T22:05:03.456Z,58.72
2019-06-10T22:07:33.988Z,58.55
2019-06-10T22:10:08.015Z,58.78
2019-06-10T22:12:38.515Z,58.96
2019-06-10T22:15:12.483Z,59.08
2019-06-10T22:17:44.213Z,58.99
2019-06-10T22:20:14.724Z,59.07
2019-06-10T22:22:46.490Z,59.25
2019-06-10T22:25:17.081Z,59.32
2019-06-10T22:27:47.879Z,59.80
2019-06-10T22:30:18.293Z,59.76
2019-06-10T22:32:52.672Z,60.06
2019-06-10T22:35:23.038Z,60.27
2019-06-10T22:37:55.426Z,60.13
2019-06-10T22:40:26.113Z,59.84
2019-06-10T22:42:56.856Z,60.04
2019-06-10T22:45:27.206Z,59.81
2019-06-10T22:47:58.466Z,59.93
2019-06-10T22:50:28.885Z,59.90
2019-06-10T22:52:59.702Z,60.20
2019-06-10T22:55:32.226Z,60.16
2019-06-10T22:58:05.804Z,60.79
2019-06-10T23:00:34.446Z,60.91
2019-06-10T23:03:04.933Z,61.10
2019-06-10T23:05:35.367Z,61.39
2019-06-10T23:08:05.782Z,61.23
2019-06-10T23:10:37.255Z,61.19
2019-06-10T23:13:07.835Z,61.13
2019-06-10T23:15:38.384Z,61.34
2019-06-10T23:18:08.904Z,61.33
2019-06-10T23:20:39.508Z,61.52
2019-06-10T23:23:12.663Z,61.95
2019-06-10T23:25:43.160Z,62.52
2019-06-10T23:28:13.616Z,62.89
2019-06-10T23:30:44.918Z,63.24
2019-06-10T23:33:15.525Z,63.38
2019-06-10T23:35:47.684Z,63.57
2019-06-10T23:38:18.251Z,63.51
2019-06-10T23:40:48.621Z,63.38
2019-06-10T23:43:19.023Z,63.41
2019-06-10T23:45:49.388Z,63.52
2019-06-10T23:48:22.558Z,63.74
2019-06-10T23:50:53.828Z,64.14
2019-06-10T23:53:24.185Z,64.51
2019-06-10T23:55:55.175Z,64.80
2019-06-10T23:58:26.685Z,65.03
